Time;durP1;ratioP1;P1;durP2;ratioP2;P2;SDS_P1;SDS_P2;PMS_P1;PMS_P2;Temp;Humidity;BMP_temperature;BMP_pressure;BME280_temperature;BME280_humidity;BME280_pressure;Samples;Min_cycle;Max_cycle;Signal;HPM_P1;HPM_P2
2023/05/10 00:00:57;;;;;;;2.45;1.30;;;;;;;15.52;82.59;99517.84;10425325;28;20055;-59
2023/05/10 00:05:59;;;;;;;1.80;0.50;;;;;;;15.34;82.47;99513.28;10422901;28;20134;-58
2023/05/10 00:11:00;;;;;;;1.90;0.32;;;;;;;15.35;81.86;99516.84;10417408;28;20095;-60
2023/05/10 00:16:02;;;;;;;1.08;0.60;;;;;;;15.37;81.63;99522.84;10428647;28;20110;-60
2023/05/10 00:21:04;;;;;;;1.40;0.10;;;;;;;15.26;81.63;99524.41;10426340;28;20053;-61
2023/05/10 00:26:05;;;;;;;2.25;0.20;;;;;;;15.20;81.73;99525.34;10422309;28;20128;-61
2023/05/10 00:31:07;;;;;;;0.17;0.10;;;;;;;15.18;81.56;99522.84;10422635;28;20073;-60
2023/05/10 00:36:08;;;;;;;0.57;0.10;;;;;;;15.03;81.92;99525.13;10423662;28;20049;-61
2023/05/10 00:41:10;;;;;;;0.38;0.20;;;;;;;14.97;81.93;99529.56;10420870;28;20716;-61
2023/05/10 00:46:12;;;;;;;1.25;0.20;;;;;;;14.96;82.00;99527.88;10419819;28;20511;-61
2023/05/10 00:51:13;;;;;;;0.57;0.20;;;;;;;15.04;81.54;99527.59;10421546;28;20571;-61
2023/05/10 00:56:15;;;;;;;0.30;0.20;;;;;;;14.95;81.98;99528.09;10422291;28;20103;-61
2023/05/10 01:01:17;;;;;;;0.47;0.20;;;;;;;15.03;81.65;99534.06;10420876;28;20045;-64
2023/05/10 01:06:18;;;;;;;0.30;0.17;;;;;;;15.05;81.33;99536.56;10423096;28;20133;-65
2023/05/10 01:11:20;;;;;;;2.35;0.15;;;;;;;14.91;81.83;99544.00;10402420;28;20081;-64
2023/05/10 01:16:23;;;;;;;0.98;0.10;;;;;;;14.85;81.93;99542.19;10422475;28;20569;-63
2023/05/10 01:21:38;;;;;;;0.15;0.10;;;;;;;14.72;82.05;99543.13;10422987;28;20049;-63
2023/05/10 01:26:54;;;;;;;0.75;0.17;;;;;;;14.77;81.98;99546.00;10421495;28;20629;-63
2023/05/10 01:32:03;;;;;;;1.23;0.40;;;;;;;14.86;81.74;99554.66;10422070;28;20072;-64
2023/05/10 01:37:10;;;;;;;1.25;0.40;;;;;;;14.91;81.72;99548.56;10420558;28;20487;-64
2023/05/10 01:42:19;;;;;;;0.98;0.30;;;;;;;14.85;81.76;99559.25;10423733;28;20309;-62
2023/05/10 01:47:35;;;;;;;3.28;1.02;;;;;;;14.84;81.72;99564.88;10420011;28;20084;-64
2023/05/10 01:52:40;;;;;;;0.52;0.30;;;;;;;14.89;81.69;99573.16;10420484;28;20049;-62
2023/05/10 01:57:44;;;;;;;1.20;0.50;;;;;;;14.87;81.74;99578.78;10417458;28;20060;-63
2023/05/10 02:02:50;;;;;;;1.30;0.50;;;;;;;14.78;81.70;99582.81;10418788;28;20076;-63
2023/05/10 02:07:54;;;;;;;3.67;0.40;;;;;;;14.81;81.66;99592.34;10421872;28;20547;-63
2023/05/10 02:12:58;;;;;;;2.20;0.68;;;;;;;14.83;81.42;99583.00;10418540;28;20441;-64
2023/05/10 02:18:03;;;;;;;2.97;0.60;;;;;;;14.83;81.42;99580.28;10419598;28;20091;-63
2023/05/10 02:23:07;;;;;;;3.38;0.70;;;;;;;14.88;81.10;99588.53;10415223;28;20480;-63
2023/05/10 02:28:10;;;;;;;5.32;0.70;;;;;;;14.89;81.14;99589.41;10410455;28;20373;-62
2023/05/10 02:33:12;;;;;;;3.72;0.63;;;;;;;14.81;81.21;99605.88;10422372;28;20664;-62
2023/05/10 02:38:14;;;;;;;3.50;0.70;;;;;;;14.76;81.25;99601.16;10420369;28;20069;-64
2023/05/10 02:43:17;;;;;;;1.25;0.70;;;;;;;14.75;81.47;99613.03;10417707;28;20045;-63
2023/05/10 02:48:19;;;;;;;3.65;0.63;;;;;;;14.74;81.40;99613.25;10419550;28;20128;-62
2023/05/10 02:53:33;;;;;;;0.68;0.40;;;;;;;14.72;81.28;99620.75;10418769;28;20111;-63
2023/05/10 02:58:35;;;;;;;2.53;0.50;;;;;;;14.67;81.69;99627.66;10423841;28;20156;-63
2023/05/10 03:03:36;;;;;;;2.75;0.57;;;;;;;14.69;81.46;99616.59;10415554;28;20050;-63
2023/05/10 03:08:38;;;;;;;2.33;0.50;;;;;;;14.62;81.41;99621.25;10410064;28;20084;-60
2023/05/10 03:13:49;;;;;;;3.90;0.80;;;;;;;14.62;81.47;99622.09;10421865;28;20114;-61
2023/05/10 03:19:01;;;;;;;1.10;0.50;;;;;;;14.64;81.38;99628.09;10423695;28;20053;-61
2023/05/10 03:24:07;;;;;;;3.63;0.50;;;;;;;14.64;81.17;99629.97;10421038;28;20049;-61
2023/05/10 03:29:10;;;;;;;3.80;0.65;;;;;;;14.74;80.87;99634.91;10414034;28;20076;-61
2023/05/10 03:34:11;;;;;;;2.33;0.60;;;;;;;14.66;80.98;99647.63;10419378;28;20111;-61
2023/05/10 03:39:13;;;;;;;1.83;0.60;;;;;;;14.67;80.79;99643.91;10424223;28;20068;-61
2023/05/10 03:44:14;;;;;;;1.95;0.80;;;;;;;14.64;81.02;99643.50;10424302;28;20076;-61
2023/05/10 03:49:16;;;;;;;3.13;0.80;;;;;;;14.65;80.98;99653.25;10423308;28;20519;-69
2023/05/10 03:54:17;;;;;;;3.05;0.60;;;;;;;14.67;80.87;99651.16;10424564;28;20144;-69
2023/05/10 03:59:19;;;;;;;3.17;1.58;;;;;;;14.70;80.85;99658.84;10422681;28;20124;-69
2023/05/10 04:04:21;;;;;;;2.72;1.05;;;;;;;14.78;80.62;99664.00;10421488;28;20049;-68
2023/05/10 04:09:22;;;;;;;4.97;1.23;;;;;;;14.78;80.56;99663.16;10419308;28;20127;-68
2023/05/10 04:14:24;;;;;;;3.58;0.93;;;;;;;14.84;80.46;99646.88;10426823;28;20454;-70
2023/05/10 04:19:32;;;;;;;2.97;1.27;;;;;;;14.93;80.45;99647.44;10426011;28;20048;-68
2023/05/10 04:24:33;;;;;;;3.05;1.30;;;;;;;14.99;80.06;99646.53;10420219;28;20255;-69
2023/05/10 04:29:34;;;;;;;3.58;1.02;;;;;;;15.01;80.14;99654.44;10423931;28;20057;-69
2023/05/10 04:34:37;;;;;;;2.78;1.13;;;;;;;15.10;79.91;99658.50;10412143;28;20096;-69
2023/05/10 04:39:38;;;;;;;3.58;1.08;;;;;;;15.11;80.07;99660.19;10424317;28;20141;-68
2023/05/10 04:44:42;;;;;;;1.83;0.80;;;;;;;15.10;80.22;99669.34;10412945;28;20535;-68
2023/05/10 04:49:44;;;;;;;8.45;1.95;;;;;;;15.22;79.86;99678.38;10425136;28;20116;-69
2023/05/10 04:54:45;;;;;;;2.08;1.20;;;;;;;15.19;80.17;99686.13;10410121;28;20122;-68
2023/05/10 04:59:46;;;;;;;1.98;0.90;;;;;;;15.34;79.77;99686.59;10414282;28;20075;-69
2023/05/10 05:04:50;;;;;;;1.85;0.88;;;;;;;15.31;79.82;99684.34;10424800;28;20124;-69
2023/05/10 05:09:52;;;;;;;2.25;0.93;;;;;;;15.23;80.31;99688.16;10421708;28;20492;-70
2023/05/10 05:14:53;;;;;;;5.45;1.02;;;;;;;15.23;80.35;99685.47;10426064;28;20099;-70
2023/05/10 05:19:55;;;;;;;1.38;0.80;;;;;;;15.33;80.24;99687.66;10427148;28;20121;-70
2023/05/10 05:24:58;;;;;;;3.30;1.02;;;;;;;15.45;79.86;99702.13;10426724;28;20045;-70
2023/05/10 05:29:59;;;;;;;2.33;1.38;;;;;;;15.51;79.79;99705.00;10408097;28;20056;-70
2023/05/10 05:35:00;;;;;;;2.95;1.10;;;;;;;15.52;79.70;99706.63;10417843;28;20045;-71
2023/05/10 05:40:03;;;;;;;2.63;1.50;;;;;;;15.47;79.96;99693.75;10420331;28;20104;-70
2023/05/10 05:45:05;;;;;;;2.92;1.35;;;;;;;15.55;79.81;99708.91;10420006;28;20107;-70
2023/05/10 05:50:07;;;;;;;5.03;1.67;;;;;;;15.53;79.74;99702.88;10423858;28;20038;-70
2023/05/10 05:55:08;;;;;;;3.25;1.60;;;;;;;15.59;79.57;99712.81;10420142;28;20110;-71
2023/05/10 06:00:10;;;;;;;5.30;1.70;;;;;;;15.60;79.45;99715.31;10414612;28;20064;-70
2023/05/10 06:05:11;;;;;;;3.88;1.60;;;;;;;15.57;79.39;99721.16;10393493;28;20129;-70
2023/05/10 06:10:13;;;;;;;4.72;1.92;;;;;;;15.67;79.42;99723.34;10417283;28;20436;-68
2023/05/10 06:15:14;;;;;;;1.85;1.45;;;;;;;15.77;79.41;99729.09;10423874;28;20139;-64
2023/05/10 06:20:16;;;;;;;7.30;4.22;;;;;;;15.80;79.33;99735.97;10429589;28;20077;-67
2023/05/10 06:25:18;;;;;;;3.97;2.03;;;;;;;15.77;79.45;99729.09;10426770;28;20106;-68
2023/05/10 06:30:20;;;;;;;4.50;2.22;;;;;;;15.82;79.48;99739.28;10415668;28;20073;-67
2023/05/10 06:35:21;;;;;;;3.17;2.05;;;;;;;15.98;79.15;99744.09;10421009;28;20151;-68
2023/05/10 06:40:23;;;;;;;4.43;1.85;;;;;;;16.11;78.89;99745.81;10417389;28;20056;-67
2023/05/10 06:45:24;;;;;;;2.58;1.60;;;;;;;16.01;79.18;99753.66;10400537;28;20053;-68
2023/05/10 06:50:25;;;;;;;4.65;2.00;;;;;;;16.05;79.18;99763.84;10421500;28;20034;-65
2023/05/10 06:55:27;;;;;;;4.63;1.27;;;;;;;16.22;78.59;99753.19;10419997;28;20046;-66
2023/05/10 07:00:29;;;;;;;3.95;1.05;;;;;;;16.30;78.63;99759.38;10415863;28;20052;-67
2023/05/10 07:05:31;;;;;;;3.55;1.20;;;;;;;16.42;78.67;99766.50;10417330;28;20495;-68
2023/05/10 07:10:32;;;;;;;8.05;2.25;;;;;;;16.57;78.47;99759.84;10424715;28;20040;-68
2023/05/10 07:15:34;;;;;;;5.05;1.17;;;;;;;16.76;78.10;99768.75;10429057;28;20073;-67
2023/05/10 07:20:35;;;;;;;3.88;1.25;;;;;;;16.71;78.09;99776.78;10432161;28;20057;-68
2023/05/10 07:25:37;;;;;;;7.43;1.23;;;;;;;16.83;77.63;99781.19;10434852;28;20534;-65
2023/05/10 07:30:38;;;;;;;3.40;1.45;;;;;;;16.71;77.58;99785.75;10424825;28;20057;-68
2023/05/10 07:35:40;;;;;;;4.00;1.10;;;;;;;16.77;77.56;99779.38;10424590;28;20054;-72
2023/05/10 07:40:42;;;;;;;5.32;1.27;;;;;;;16.79;77.31;99787.31;10431024;28;20080;-70
2023/05/10 07:45:43;;;;;;;4.18;1.45;;;;;;;16.89;77.03;99798.47;10424356;28;20099;-66
2023/05/10 07:50:44;;;;;;;3.67;1.30;;;;;;;16.94;76.97;99790.47;10421161;28;20157;-69
2023/05/10 07:55:56;;;;;;;4.65;1.20;;;;;;;17.05;76.41;99794.25;10412020;28;20152;-59
2023/05/10 08:00:58;;;;;;;3.88;1.00;;;;;;;17.09;76.35;99808.19;10428561;28;20072;-64
2023/05/10 08:05:59;;;;;;;3.78;1.20;;;;;;;17.20;76.01;99808.22;10425263;28;20061;-66
2023/05/10 08:11:00;;;;;;;3.28;0.93;;;;;;;17.28;75.97;99800.78;10412590;28;20132;-67
2023/05/10 08:16:02;;;;;;;5.22;2.05;;;;;;;17.47;75.46;99798.81;10408855;28;20052;-66
2023/05/10 08:21:04;;;;;;;4.80;1.73;;;;;;;17.49;75.25;99802.94;10428327;28;20046;-67
2023/05/10 08:26:05;;;;;;;2.78;1.17;;;;;;;17.60;74.88;99810.28;10429621;28;20128;-70
2023/05/10 08:31:06;;;;;;;2.80;1.05;;;;;;;17.82;74.34;99806.97;10423612;28;20462;-69
2023/05/10 08:36:08;;;;;;;4.72;0.88;;;;;;;18.04;74.24;99812.66;10414010;28;20063;-71
2023/05/10 08:41:10;;;;;;;1.77;0.80;;;;;;;18.07;74.16;99808.63;10426934;28;20502;-71
2023/05/10 08:46:17;;;;;;;2.80;0.73;;;;;;;18.12;73.56;99815.00;10430726;28;20056;-71
2023/05/10 08:51:22;;;;;;;1.73;1.17;;;;;;;18.20;73.09;99820.06;10433640;28;20603;-72
2023/05/10 08:56:23;;;;;;;6.63;1.92;;;;;;;17.54;74.64;99834.88;10408019;28;20311;-71
2023/05/10 09:01:27;;;;;;;1.35;0.80;;;;;;;17.24;75.25;99828.44;10413684;28;20064;-72
2023/05/10 09:06:29;;;;;;;5.18;0.90;;;;;;;17.27;74.76;99834.47;10391530;28;20037;-70
2023/05/10 09:11:31;;;;;;;4.25;0.75;;;;;;;17.28;74.51;99845.09;10423018;28;20091;-70
2023/05/10 09:16:32;;;;;;;4.95;0.90;;;;;;;17.04;74.51;99855.88;10409429;28;20516;-70
2023/05/10 09:21:38;;;;;;;3.33;0.95;;;;;;;16.33;76.02;99857.41;10407161;28;20495;-68
2023/05/10 09:26:48;;;;;;;3.05;0.63;;;;;;;15.96;77.47;99865.50;10424555;28;20081;-67
2023/05/10 09:31:55;;;;;;;2.80;0.73;;;;;;;15.96;77.73;99859.25;10420682;28;20057;-66
2023/05/10 09:37:00;;;;;;;2.80;1.15;;;;;;;16.14;77.75;99861.97;10424360;28;20076;-67
2023/05/10 09:42:07;;;;;;;4.95;1.20;;;;;;;16.17;77.94;99858.81;10406694;28;20130;-70
2023/05/10 09:47:09;;;;;;;1.65;0.73;;;;;;;16.17;78.25;99857.97;10405916;28;20060;-70
2023/05/10 09:52:13;;;;;;;2.45;0.82;;;;;;;16.34;78.57;99852.78;10392338;28;20056;-71
2023/05/10 09:57:21;;;;;;;0.98;0.70;;;;;;;16.51;78.41;99847.56;10411663;28;20045;-72
2023/05/10 10:02:29;;;;;;;2.00;0.60;;;;;;;16.92;78.07;99857.72;10379118;28;20064;-73
2023/05/10 10:07:31;;;;;;;3.50;1.63;;;;;;;17.28;77.56;99866.81;10408331;28;20411;-72
2023/05/10 10:12:33;;;;;;;3.03;0.63;;;;;;;17.61;77.54;99860.88;10404565;28;20049;-73
2023/05/10 10:17:37;;;;;;;3.45;0.50;;;;;;;17.76;76.43;99867.72;10407807;28;20114;-73
2023/05/10 10:22:39;;;;;;;2.97;0.63;;;;;;;17.77;76.11;99863.94;10421527;28;20508;-74
2023/05/10 10:27:53;;;;;;;1.98;0.50;;;;;;;17.68;75.74;99858.03;10402521;28;20041;-73
2023/05/10 10:33:31;;;;;;;3.05;0.60;;;;;;;17.58;75.62;99855.91;10399681;28;20084;-73
2023/05/10 10:38:38;;;;;;;3.28;0.45;;;;;;;17.52;75.33;99856.84;10420519;28;20060;-73
2023/05/10 10:43:39;;;;;;;0.88;0.50;;;;;;;17.76;75.20;99865.84;10420586;28;20057;-73
2023/05/10 10:48:48;;;;;;;1.42;0.50;;;;;;;17.86;74.41;99868.00;10412322;28;20057;-76
2023/05/10 10:53:49;;;;;;;2.15;0.60;;;;;;;17.77;74.62;99870.22;10419338;28;20095;-73
2023/05/10 10:58:53;;;;;;;2.97;0.98;;;;;;;17.73;74.71;99879.06;10411614;28;20060;-74
2023/05/10 11:04:18;;;;;;;1.38;0.47;;;;;;;17.12;75.61;99879.19;10396768;28;20049;-72
2023/05/10 11:09:24;;;;;;;3.65;0.50;;;;;;;16.49;76.87;99890.38;10418303;28;20496;-70
2023/05/10 11:14:25;;;;;;;1.38;0.63;;;;;;;15.99;77.94;99899.44;10413276;28;21000;-69
2023/05/10 11:19:27;;;;;;;3.55;0.60;;;;;;;15.84;78.14;99891.66;10421831;28;20599;-68
2023/05/10 11:24:29;;;;;;;2.35;0.43;;;;;;;15.75;78.44;99901.13;10420119;28;20166;-66
2023/05/10 11:29:30;;;;;;;0.75;0.40;;;;;;;15.55;79.21;99890.41;10420796;28;20103;-69
2023/05/10 11:34:35;;;;;;;0.93;0.40;;;;;;;15.62;79.07;99902.00;10422732;28;20065;-69
2023/05/10 11:39:36;;;;;;;0.85;0.47;;;;;;;15.79;79.46;99900.44;10405308;28;20080;-69
2023/05/10 11:44:38;;;;;;;1.70;0.40;;;;;;;16.02;79.75;99907.97;10421577;28;20095;-71
2023/05/10 11:49:43;;;;;;;0.50;0.30;;;;;;;16.10;79.79;99903.31;10410967;28;20057;-71
2023/05/10 11:54:54;;;;;;;0.60;0.30;;;;;;;15.98;80.15;99911.34;10415297;28;20488;-71
2023/05/10 11:59:57;;;;;;;1.00;0.40;;;;;;;16.02;80.27;99910.69;10408491;28;20100;-73
2023/05/10 12:04:58;;;;;;;1.10;0.20;;;;;;;16.21;80.32;99922.41;10420827;28;20044;-74
2023/05/10 12:10:14;;;;;;;1.48;0.20;;;;;;;16.56;79.38;99910.13;10428287;28;20132;-76
2023/05/10 12:15:19;;;;;;;2.90;0.10;;;;;;;16.73;79.02;99913.09;10436163;28;20068;-77
2023/05/10 12:20:22;;;;;;;2.05;0.20;;;;;;;16.81;78.76;99918.19;10434707;28;20092;-75
2023/05/10 12:25:30;;;;;;;2.50;0.20;;;;;;;17.05;77.56;99920.00;10424610;28;20051;-75
2023/05/10 12:30:33;;;;;;;0.20;0.10;;;;;;;17.07;76.95;99914.34;10424441;28;20532;-79
2023/05/10 12:35:44;;;;;;;2.20;0.15;;;;;;;17.30;75.87;99913.59;10406523;28;20069;-77
2023/05/10 12:40:45;;;;;;;0.77;0.30;;;;;;;17.60;75.15;99923.63;10423381;28;20103;-60
2023/05/10 12:45:48;;;;;;;2.75;0.10;;;;;;;18.01;73.77;99920.03;10417080;28;20102;-60
2023/05/10 12:50:50;;;;;;;1.48;0.10;;;;;;;18.45;71.93;99913.41;10417671;28;20081;-62
2023/05/10 12:55:51;;;;;;;2.95;0.20;;;;;;;18.66;71.28;99926.41;10427225;28;20095;-60
2023/05/10 13:00:53;;;;;;;0.70;0.20;;;;;;;18.61;71.29;99932.53;10419321;28;20111;-59
2023/05/10 13:05:55;;;;;;;0.28;0.20;;;;;;;18.91;70.40;99926.09;10420054;28;20060;-59
2023/05/10 13:10:56;;;;;;;0.43;0.10;;;;;;;19.34;69.58;99924.75;10416874;28;20080;-59
2023/05/10 13:15:57;;;;;;;0.50;0.08;;;;;;;19.99;66.74;99925.34;10419074;28;20551;-59
2023/05/10 13:20:59;;;;;;;3.40;0.13;;;;;;;20.06;66.66;99923.28;10426312;28;20131;-59
2023/05/10 13:26:00;;;;;;;0.85;0.03;;;;;;;20.72;65.43;99928.06;10422261;28;20136;-58
2023/05/10 13:31:01;;;;;;;0.10;0.10;;;;;;;20.18;64.65;99928.63;10422537;28;20317;-59
2023/05/10 13:36:03;;;;;;;0.40;0.20;;;;;;;20.03;64.85;99933.88;10423370;28;20075;-59
2023/05/10 13:41:04;;;;;;;0.30;0.10;;;;;;;19.35;64.23;99936.50;10424392;28;20091;-59
2023/05/10 13:46:06;;;;;;;0.35;0.10;;;;;;;19.09;63.94;99930.53;10415155;28;20079;-59
2023/05/10 13:51:07;;;;;;;1.63;0.20;;;;;;;18.85;62.94;99924.34;10417165;28;20057;-59
2023/05/10 13:56:09;;;;;;;0.20;0.10;;;;;;;19.04;62.81;99927.75;10376941;28;20148;-59
2023/05/10 14:01:11;;;;;;;0.52;0.10;;;;;;;19.10;62.44;99928.66;10377393;28;20493;-60
2023/05/10 14:06:13;;;;;;;4.15;0.13;;;;;;;19.03;62.14;99931.53;10383069;28;20051;-59
2023/05/10 14:11:15;;;;;;;0.22;0.10;;;;;;;19.12;61.34;99924.63;10381528;28;20063;-60
2023/05/10 14:16:16;;;;;;;2.00;0.13;;;;;;;19.48;60.61;99919.00;10375730;28;20096;-60
2023/05/10 14:21:17;;;;;;;2.30;0.10;;;;;;;19.67;60.04;99909.53;10377005;28;20042;-66
2023/05/10 14:26:20;;;;;;;6.07;0.82;;;;;;;19.71;59.31;99915.34;10379009;28;20077;-65
2023/05/10 14:31:24;;;;;;;2.42;0.20;;;;;;;19.88;58.36;99920.81;10380285;28;20042;-66
2023/05/10 14:36:25;;;;;;;0.75;0.10;;;;;;;19.97;59.04;99920.16;10380814;28;20041;-64
2023/05/10 14:41:27;;;;;;;1.88;0.10;;;;;;;19.83;59.56;99918.84;10375232;28;20124;-67
2023/05/10 14:46:29;;;;;;;1.77;0.10;;;;;;;19.95;59.17;99919.56;10379213;28;20495;-64
2023/05/10 14:51:31;;;;;;;0.10;0.10;;;;;;;20.12;59.05;99913.25;10383210;28;20119;-65
2023/05/10 14:56:32;;;;;;;0.40;0.03;;;;;;;20.03;58.20;99917.50;10385042;28;20054;-61
2023/05/10 15:01:37;;;;;;;0.30;0.10;;;;;;;20.10;58.39;99910.81;10378881;28;20120;-63
2023/05/10 15:06:39;;;;;;;0.15;0.10;;;;;;;20.79;57.61;99898.63;10380128;28;20052;-63
2023/05/10 15:11:40;;;;;;;4.30;0.10;;;;;;;21.30;57.13;99903.84;10379829;28;20451;-62
2023/05/10 15:16:41;;;;;;;0.30;0.10;;;;;;;21.51;56.96;99896.72;10377806;28;20132;-63
2023/05/10 15:21:44;;;;;;;0.40;0.10;;;;;;;21.91;56.17;99892.66;10380947;28;20988;-63
2023/05/10 15:26:45;;;;;;;0.43;0.10;;;;;;;22.34;54.58;99890.78;10382462;28;20061;-62
2023/05/10 15:31:47;;;;;;;1.95;0.10;;;;;;;22.55;53.91;99895.28;10387952;28;20050;-65
2023/05/10 15:36:49;;;;;;;1.25;0.10;;;;;;;22.82;54.03;99909.91;10386910;28;20050;-63
2023/05/10 15:41:50;;;;;;;0.65;0.13;;;;;;;23.28;53.48;99915.56;10383547;28;20132;-63
2023/05/10 15:46:52;;;;;;;7.60;0.60;;;;;;;23.58;54.04;99919.44;10387325;28;20453;-63
2023/05/10 15:51:53;;;;;;;2.70;0.30;;;;;;;23.64;53.44;99924.69;10383447;28;20081;-62
2023/05/10 15:56:55;;;;;;;0.47;0.10;;;;;;;23.83;53.09;99927.72;10379171;28;20053;-63
2023/05/10 16:01:56;;;;;;;1.42;0.00;;;;;;;23.40;53.09;99929.88;10377111;28;20147;-64
2023/05/10 16:06:57;;;;;;;0.20;0.10;;;;;;;23.20;52.14;99933.34;10383776;28;20127;-62
2023/05/10 16:11:59;;;;;;;0.10;0.10;;;;;;;23.14;51.78;99924.31;10377051;28;20046;-60
2023/05/10 16:17:00;;;;;;;1.02;0.52;;;;;;;22.59;51.00;99939.41;10376661;28;20832;-63
2023/05/10 16:22:03;;;;;;;0.30;0.10;;;;;;;22.39;50.25;99937.34;10373584;28;20140;-64
2023/05/10 16:27:05;;;;;;;0.20;0.10;;;;;;;22.20;50.58;99945.16;10363545;28;20060;-62
2023/05/10 16:32:07;;;;;;;1.55;0.20;;;;;;;21.80;51.46;99951.97;10374483;28;20471;-64
2023/05/10 16:37:08;;;;;;;3.75;0.10;;;;;;;22.07;51.87;99946.41;10373732;28;20146;-62
2023/05/10 16:42:10;;;;;;;1.70;0.32;;;;;;;22.09;53.14;99954.38;10366475;28;20123;-59
2023/05/10 16:47:11;;;;;;;0.52;0.10;;;;;;;21.92;53.34;99949.88;10376741;28;20073;-62
2023/05/10 16:52:12;;;;;;;0.93;0.10;;;;;;;21.98;53.60;99953.47;10377807;28;20116;-61
2023/05/10 16:57:14;;;;;;;1.50;0.13;;;;;;;21.94;53.72;99955.09;10377862;28;20073;-60
2023/05/10 17:02:15;;;;;;;0.40;0.10;;;;;;;21.91;53.91;99961.91;10378646;28;20069;-60
2023/05/10 17:07:17;;;;;;;1.75;0.75;;;;;;;21.66;54.88;99964.41;10376287;28;20049;-61
2023/05/10 17:12:19;;;;;;;1.67;0.65;;;;;;;21.60;55.27;99958.03;10375111;28;20144;-61
2023/05/10 17:17:20;;;;;;;2.38;0.30;;;;;;;21.51;55.16;99965.09;10375092;28;20077;-60
2023/05/10 17:22:22;;;;;;;0.70;0.40;;;;;;;21.43;56.28;99963.63;10373594;28;20495;-61
2023/05/10 17:27:23;;;;;;;2.83;0.15;;;;;;;21.25;56.80;99973.00;10374784;28;20132;-61
2023/05/10 17:32:25;;;;;;;2.50;0.30;;;;;;;21.08;57.37;99972.22;10378932;28;20154;-61
2023/05/10 17:37:26;;;;;;;2.15;0.20;;;;;;;20.88;57.75;99979.09;10381474;28;20049;-61
2023/05/10 17:42:27;;;;;;;3.35;0.20;;;;;;;20.71;58.28;99983.78;10382605;28;20076;-61
2023/05/10 17:47:30;;;;;;;2.28;0.30;;;;;;;20.59;58.12;99978.41;10380323;28;20298;-62
2023/05/10 17:52:31;;;;;;;1.15;0.20;;;;;;;20.46;59.00;99976.84;10393809;28;20611;-61
2023/05/10 17:57:36;;;;;;;0.77;0.20;;;;;;;20.35;58.91;99986.78;10418351;28;20080;-60
2023/05/10 18:02:38;;;;;;;0.63;0.20;;;;;;;20.20;58.92;99992.84;10418260;28;20045;-61
2023/05/10 18:07:39;;;;;;;1.58;0.20;;;;;;;20.16;59.09;99988.09;10415160;28;20064;-59
2023/05/10 18:12:40;;;;;;;1.33;0.15;;;;;;;20.08;59.05;99992.06;10417008;28;20053;-60
2023/05/10 18:17:42;;;;;;;2.13;0.20;;;;;;;19.98;59.19;100000.94;10417839;28;20045;-62
2023/05/10 18:22:43;;;;;;;2.13;0.15;;;;;;;19.88;59.70;100003.47;10418556;28;20048;-62
2023/05/10 18:27:45;;;;;;;1.10;0.20;;;;;;;19.75;59.86;100003.78;10415999;28;20159;-61
2023/05/10 18:32:46;;;;;;;0.28;0.20;;;;;;;19.68;59.68;100005.81;10414818;28;20134;-60
2023/05/10 18:37:48;;;;;;;1.00;0.20;;;;;;;19.59;60.01;100002.66;10416803;28;20511;-60
2023/05/10 18:42:49;;;;;;;0.50;0.30;;;;;;;19.56;60.35;100008.59;10419286;28;20053;-60
2023/05/10 18:47:50;;;;;;;0.65;0.40;;;;;;;19.46;60.52;100013.84;10420230;28;20037;-62
2023/05/10 18:52:52;;;;;;;1.65;0.30;;;;;;;19.38;60.79;100012.34;10416925;28;20515;-62
2023/05/10 18:57:54;;;;;;;0.82;0.30;;;;;;;19.30;61.00;100012.72;10418892;28;20057;-62
2023/05/10 19:02:55;;;;;;;2.22;0.28;;;;;;;19.25;60.94;100010.69;10419194;28;20511;-63
2023/05/10 19:07:56;;;;;;;2.80;0.30;;;;;;;19.17;61.35;100021.97;10411457;28;20057;-60
2023/05/10 19:12:58;;;;;;;1.75;0.20;;;;;;;18.59;62.77;100032.69;10424075;28;20111;-59
2023/05/10 19:17:59;;;;;;;0.60;0.13;;;;;;;18.36;63.21;100030.78;10426218;28;20129;-59
2023/05/10 19:23:02;;;;;;;0.93;0.40;;;;;;;18.31;63.42;100030.66;10431459;28;20499;-60
2023/05/10 19:28:09;;;;;;;0.95;0.50;;;;;;;18.22;63.73;100032.88;10419156;28;20055;-59
2023/05/10 19:33:11;;;;;;;2.30;0.40;;;;;;;17.86;64.88;100039.31;10428302;28;20056;-58
2023/05/10 19:38:12;;;;;;;1.25;0.70;;;;;;;17.73;65.02;100048.47;10409764;28;20056;-59
2023/05/10 19:43:14;;;;;;;2.45;0.50;;;;;;;17.52;65.94;100052.50;10422884;28;20049;-59
2023/05/10 19:48:16;;;;;;;3.42;1.42;;;;;;;17.52;66.18;100049.78;10419933;28;20060;-59
2023/05/10 19:53:17;;;;;;;3.47;1.08;;;;;;;17.51;66.27;100063.59;10426601;28;20127;-59
2023/05/10 19:58:19;;;;;;;1.45;0.60;;;;;;;17.34;66.45;100074.28;10424084;28;20084;-58
2023/05/10 20:03:20;;;;;;;1.70;0.50;;;;;;;17.18;67.09;100065.69;10425638;28;20144;-59
2023/05/10 20:08:21;;;;;;;2.95;0.82;;;;;;;17.04;67.45;100078.56;10425243;28;20068;-59
2023/05/10 20:13:23;;;;;;;0.85;0.30;;;;;;;17.07;67.38;100071.03;10419072;28;20042;-60
2023/05/10 20:18:25;;;;;;;3.72;1.13;;;;;;;17.02;67.61;100074.41;10420499;28;20065;-59
2023/05/10 20:23:27;;;;;;;3.90;0.47;;;;;;;17.01;67.67;100078.19;10422775;28;20053;-57
2023/05/10 20:28:28;;;;;;;5.70;0.60;;;;;;;16.93;67.67;100079.31;10427155;28;20095;-59
2023/05/10 20:33:30;;;;;;;2.78;0.50;;;;;;;16.85;67.88;100074.19;10415326;28;20084;-59
2023/05/10 20:38:31;;;;;;;4.40;0.50;;;;;;;16.81;67.99;100076.50;10425244;28;20053;-58
2023/05/10 20:43:32;;;;;;;4.57;0.50;;;;;;;16.77;68.13;100072.53;10422707;28;20136;-58
2023/05/10 20:48:34;;;;;;;5.47;0.52;;;;;;;16.67;68.31;100072.22;10423738;28;20049;-58
2023/05/10 20:53:35;;;;;;;1.92;0.68;;;;;;;16.59;68.39;100072.53;10425005;28;20098;-58
2023/05/10 20:58:37;;;;;;;1.27;0.60;;;;;;;16.50;68.66;100068.41;10426816;28;20081;-59
2023/05/10 21:03:38;;;;;;;1.52;0.80;;;;;;;16.43;68.72;100072.03;10426517;28;20060;-60
2023/05/10 21:08:40;;;;;;;3.03;1.13;;;;;;;16.18;69.52;100073.88;10420958;28;20087;-58
2023/05/10 21:13:41;;;;;;;5.15;0.80;;;;;;;16.09;69.69;100065.16;10417184;28;20069;-59
2023/05/10 21:18:42;;;;;;;3.42;1.38;;;;;;;16.06;69.60;100066.44;10420718;28;20083;-57
2023/05/10 21:23:47;;;;;;;2.05;0.68;;;;;;;16.01;69.68;100062.72;10424588;28;20384;-59
2023/05/10 21:28:48;;;;;;;3.97;0.88;;;;;;;15.96;69.86;100076.13;10422747;28;20071;-60
2023/05/10 21:33:50;;;;;;;5.13;1.10;;;;;;;15.98;69.76;100068.59;10405528;28;20120;-59
2023/05/10 21:38:51;;;;;;;3.55;1.48;;;;;;;15.93;69.82;100071.94;10421142;28;20752;-59
2023/05/10 21:43:53;;;;;;;10.18;2.03;;;;;;;15.88;69.60;100066.38;10419746;28;20072;-58
2023/05/10 21:48:54;;;;;;;3.90;0.85;;;;;;;15.82;70.07;100061.81;10417515;28;20053;-59
2023/05/10 21:53:55;;;;;;;2.20;0.90;;;;;;;15.70;70.26;100061.63;10423043;28;20069;-58
2023/05/10 21:58:57;;;;;;;1.17;1.05;;;;;;;15.69;70.18;100059.13;10419957;28;20076;-58
2023/05/10 22:03:58;;;;;;;2.10;1.23;;;;;;;15.67;70.29;100062.06;10416702;28;20206;-57
2023/05/10 22:09:00;;;;;;;4.88;1.90;;;;;;;15.62;70.41;100065.44;10417891;28;20081;-58
2023/05/10 22:14:01;;;;;;;4.30;1.35;;;;;;;15.51;70.76;100063.38;10421121;28;20858;-59
2023/05/10 22:19:03;;;;;;;2.25;1.00;;;;;;;15.50;70.70;100058.19;10418409;28;20054;-58
2023/05/10 22:24:04;;;;;;;2.63;0.90;;;;;;;15.45;70.79;100056.13;10422251;28;20415;-59
2023/05/10 22:29:06;;;;;;;2.47;0.90;;;;;;;15.39;70.95;100065.13;10404826;28;20049;-59
2023/05/10 22:34:07;;;;;;;7.07;1.35;;;;;;;15.30;70.90;100067.22;10418833;28;20079;-58
2023/05/10 22:39:09;;;;;;;1.40;0.80;;;;;;;15.26;70.83;100068.69;10419847;28;20073;-59
2023/05/10 22:44:10;;;;;;;4.07;1.30;;;;;;;15.18;71.17;100072.47;10417484;28;20144;-58
2023/05/10 22:49:12;;;;;;;4.78;1.08;;;;;;;15.11;71.36;100076.25;10416740;28;20083;-58
2023/05/10 22:54:13;;;;;;;4.50;1.27;;;;;;;14.98;71.67;100077.13;10416796;28;20060;-57
2023/05/10 22:59:15;;;;;;;4.88;1.05;;;;;;;14.98;71.50;100075.22;10420231;28;20044;-59
2023/05/10 23:04:16;;;;;;;4.63;1.13;;;;;;;14.96;71.51;100077.31;10415677;28;20153;-60
2023/05/10 23:09:18;;;;;;;6.38;1.10;;;;;;;14.85;71.80;100080.69;10397005;28;20045;-59
2023/05/10 23:14:19;;;;;;;1.58;1.00;;;;;;;14.77;71.62;100084.44;10424090;28;20109;-58
2023/05/10 23:19:20;;;;;;;3.67;0.80;;;;;;;14.64;71.85;100087.16;10414607;28;20136;-58
2023/05/10 23:24:22;;;;;;;3.53;1.20;;;;;;;14.59;71.78;100093.19;10421165;28;20196;-59